createdAt,value
2022-11-20T00:01:21.731Z,26.05
2022-11-20T00:03:48.419Z,25.88
2022-11-20T00:06:16.613Z,25.98
2022-11-20T00:08:43.210Z,26.01
2022-11-20T00:11:15.852Z,25.77
2022-11-20T00:13:43.683Z,25.91
2022-11-20T00:16:11.015Z,25.96
2022-11-20T00:18:42.162Z,25.88
2022-11-20T00:21:15.800Z,25.85
2022-11-20T00:23:42.577Z,25.97
2022-11-20T00:26:10.790Z,25.96
2022-11-20T00:28:37.367Z,25.98
2022-11-20T00:31:05.486Z,25.86
2022-11-20T00:33:32.233Z,25.86
2022-11-20T00:36:06.293Z,25.86
2022-11-20T00:38:33.281Z,25.90
2022-11-20T00:41:01.028Z,25.84
2022-11-20T00:43:27.600Z,25.89
2022-11-20T00:45:58.866Z,25.92
2022-11-20T00:48:25.577Z,25.88
2022-11-20T00:50:52.196Z,25.85
2022-11-20T00:53:18.783Z,25.95
2022-11-20T00:56:06.371Z,25.81
2022-11-20T00:58:34.660Z,25.87
2022-11-20T01:01:03.223Z,25.84
2022-11-20T01:03:35.189Z,25.82
2022-11-20T01:06:06.617Z,25.82
2022-11-20T01:08:34.332Z,25.79
2022-11-20T01:11:11.212Z,25.57
2022-11-20T01:13:37.994Z,25.71
2022-11-20T01:16:21.659Z,25.88
2022-11-20T01:18:49.719Z,25.93
2022-11-20T01:21:30.136Z,25.87
2022-11-20T01:23:56.756Z,25.90
2022-11-20T01:26:25.210Z,26.00
2022-11-20T01:28:52.182Z,26.06
2022-11-20T01:31:23.479Z,25.99
2022-11-20T01:33:51.983Z,26.09
2022-11-20T01:36:19.440Z,25.88
2022-11-20T01:38:46.086Z,26.08
2022-11-20T01:41:33.402Z,26.00
2022-11-20T01:44:00.664Z,26.10
2022-11-20T01:46:27.499Z,26.23
2022-11-20T01:48:53.932Z,26.38
2022-11-20T01:51:26.035Z,26.33
2022-11-20T01:53:54.068Z,26.39
2022-11-20T01:56:20.737Z,26.50
2022-11-20T01:58:55.084Z,26.41
2022-11-20T02:01:22.174Z,26.45
2022-11-20T02:03:49.120Z,26.45
2022-11-20T02:06:20.573Z,26.43
2022-11-20T02:08:47.145Z,26.58
2022-11-20T02:11:13.948Z,26.49
2022-11-20T02:13:46.656Z,26.63
2022-11-20T02:16:24.763Z,26.66
2022-11-20T02:18:51.912Z,26.54
2022-11-20T02:21:44.541Z,26.60
2022-11-20T02:24:14.032Z,26.75
2022-11-20T02:27:04.424Z,26.68
2022-11-20T02:29:43.273Z,26.71
2022-11-20T02:32:39.209Z,26.71
2022-11-20T02:35:21.554Z,26.59
2022-11-20T02:37:49.751Z,26.80
2022-11-20T02:40:16.315Z,26.79
2022-11-20T02:42:42.926Z,26.86
2022-11-20T02:45:09.911Z,26.83
2022-11-20T02:47:36.516Z,26.79
2022-11-20T02:50:03.429Z,26.82
2022-11-20T02:52:30.094Z,26.93
2022-11-20T02:54:56.778Z,26.87
2022-11-20T02:57:23.470Z,26.79
2022-11-20T02:59:50.102Z,26.85
2022-11-20T03:02:16.746Z,26.78
2022-11-20T03:04:43.378Z,26.84
2022-11-20T03:07:10.820Z,26.70
2022-11-20T03:09:37.425Z,26.51
2022-11-20T03:12:04.253Z,26.40
2022-11-20T03:14:30.804Z,26.21
2022-11-20T03:16:57.387Z,26.00
2022-11-20T03:19:24.157Z,25.73
2022-11-20T03:21:50.873Z,25.38
2022-11-20T03:24:17.509Z,25.21
2022-11-20T03:26:44.145Z,25.06
2022-11-20T03:29:10.724Z,24.88
2022-11-20T03:31:41.231Z,24.76
2022-11-20T03:34:08.377Z,24.55
2022-11-20T03:36:34.992Z,24.35
2022-11-20T03:39:01.733Z,24.12
2022-11-20T03:41:30.344Z,23.99
2022-11-20T03:43:58.561Z,23.83
2022-11-20T03:46:25.258Z,23.64
2022-11-20T03:48:52.340Z,23.51
2022-11-20T03:51:26.121Z,23.32
2022-11-20T03:53:53.926Z,23.17
2022-11-20T03:56:23.251Z,23.05
2022-11-20T03:58:49.889Z,22.93
2022-11-20T04:01:18.729Z,22.75
2022-11-20T04:03:45.514Z,22.94
2022-11-20T04:06:14.409Z,23.21
2022-11-20T04:08:41.492Z,23.55
2022-11-20T04:11:14.083Z,24.63
2022-11-20T04:13:41.085Z,26.35
2022-11-20T04:16:07.879Z,28.03
2022-11-20T04:18:34.488Z,29.45
2022-11-20T04:21:01.150Z,30.59
2022-11-20T04:23:28.968Z,31.44
2022-11-20T04:25:55.631Z,31.77
2022-11-20T04:28:22.235Z,31.76
2022-11-20T04:30:48.909Z,31.67
2022-11-20T04:33:15.510Z,31.54
2022-11-20T04:35:42.144Z,31.51
2022-11-20T04:38:08.737Z,31.70
2022-11-20T04:40:35.320Z,31.97
2022-11-20T04:43:01.883Z,32.27
2022-11-20T04:45:28.458Z,32.50
2022-11-20T04:47:55.038Z,32.59
2022-11-20T04:50:21.589Z,32.58
2022-11-20T04:52:48.125Z,32.53
2022-11-20T04:55:14.766Z,32.42
2022-11-20T04:57:41.386Z,32.34
2022-11-20T05:00:08.633Z,32.27
2022-11-20T05:02:35.311Z,32.22
2022-11-20T05:05:01.901Z,32.20
2022-11-20T05:07:28.539Z,32.17
2022-11-20T05:09:55.184Z,32.15
2022-11-20T05:12:21.763Z,32.18
2022-11-20T05:14:48.409Z,32.17
2022-11-20T05:17:15.304Z,32.17
2022-11-20T05:19:41.971Z,32.18
2022-11-20T05:22:08.572Z,32.23
2022-11-20T05:24:35.767Z,32.22
2022-11-20T05:27:02.400Z,32.23
2022-11-20T05:29:28.998Z,32.26
2022-11-20T05:31:55.597Z,32.28
2022-11-20T05:34:22.189Z,32.29
2022-11-20T05:36:48.729Z,32.28
2022-11-20T05:39:15.361Z,32.27
2022-11-20T05:41:41.978Z,32.24
2022-11-20T05:44:11.013Z,32.24
2022-11-20T05:46:37.576Z,32.24
2022-11-20T05:49:04.158Z,32.25
2022-11-20T05:51:30.781Z,32.28
2022-11-20T05:53:58.464Z,32.28
2022-11-20T05:56:27.595Z,32.30
2022-11-20T05:58:54.177Z,32.29
2022-11-20T06:01:22.763Z,32.30
2022-11-20T06:03:51.546Z,32.31
2022-11-20T06:06:18.901Z,32.31
2022-11-20T06:08:45.558Z,32.31
2022-11-20T06:11:13.519Z,32.32
2022-11-20T06:13:42.347Z,32.32
2022-11-20T06:16:09.651Z,32.33
2022-11-20T06:18:36.278Z,32.31
2022-11-20T06:21:07.440Z,32.32
2022-11-20T06:23:34.411Z,32.33
2022-11-20T06:26:14.572Z,32.37
2022-11-20T06:28:41.208Z,32.39
2022-11-20T06:31:07.919Z,32.38
2022-11-20T06:33:34.541Z,32.38
2022-11-20T06:36:05.661Z,32.42
2022-11-20T06:38:35.638Z,32.42
2022-11-20T06:41:02.257Z,32.47
2022-11-20T06:43:29.552Z,32.47
2022-11-20T06:45:56.916Z,32.46
2022-11-20T06:48:23.901Z,32.46
2022-11-20T06:50:50.536Z,32.48
2022-11-20T06:53:17.220Z,32.51
2022-11-20T06:55:44.855Z,32.52
2022-11-20T06:58:11.745Z,32.52
2022-11-20T07:00:38.393Z,32.54
2022-11-20T07:03:05.689Z,32.53
2022-11-20T07:05:32.328Z,32.55
2022-11-20T07:07:58.918Z,32.54
2022-11-20T07:10:25.946Z,32.54
2022-11-20T07:12:55.689Z,32.55
2022-11-20T07:15:23.449Z,32.56
2022-11-20T07:17:50.021Z,32.57
2022-11-20T07:20:16.664Z,32.56
2022-11-20T07:22:43.414Z,32.57
2022-11-20T07:25:10.402Z,32.55
2022-11-20T07:27:37.430Z,32.56
2022-11-20T07:30:04.824Z,32.60
2022-11-20T07:32:31.419Z,32.61
2022-11-20T07:34:57.995Z,32.62
2022-11-20T07:37:24.532Z,32.63
2022-11-20T07:39:51.175Z,32.66
2022-11-20T07:42:17.736Z,32.65
2022-11-20T07:44:44.297Z,32.64
2022-11-20T07:47:10.898Z,32.65
2022-11-20T07:49:37.518Z,32.65
2022-11-20T07:52:05.364Z,32.67
2022-11-20T07:54:32.251Z,32.69
2022-11-20T07:56:58.826Z,32.68
2022-11-20T07:59:25.734Z,32.70
2022-11-20T08:01:52.393Z,32.68
2022-11-20T08:04:19.086Z,32.69
2022-11-20T08:06:45.667Z,32.69
2022-11-20T08:09:12.258Z,32.70
2022-11-20T08:11:57.739Z,32.70
2022-11-20T08:14:24.404Z,32.69
2022-11-20T08:16:50.981Z,32.69
2022-11-20T08:19:18.688Z,32.70
2022-11-20T08:21:45.556Z,32.72
2022-11-20T08:24:12.256Z,32.75
2022-11-20T08:26:39.508Z,32.74
2022-11-20T08:29:06.351Z,32.72
2022-11-20T08:31:33.042Z,32.70
2022-11-20T08:33:59.628Z,32.71
2022-11-20T08:36:26.266Z,32.72
2022-11-20T08:38:54.687Z,32.72
2022-11-20T08:41:31.805Z,32.72
2022-11-20T08:44:00.233Z,32.73
2022-11-20T08:46:27.774Z,32.72
2022-11-20T08:48:54.498Z,32.73
2022-11-20T08:51:21.319Z,32.74
2022-11-20T08:53:49.562Z,32.76
2022-11-20T08:56:16.394Z,32.73
2022-11-20T08:59:15.389Z,32.73
2022-11-20T09:01:32.903Z,32.67
2022-11-20T09:04:00.755Z,32.31
2022-11-20T09:06:29.869Z,31.85
2022-11-20T09:09:00.732Z,31.36
2022-11-20T09:11:30.205Z,30.85
2022-11-20T09:13:56.916Z,30.31
2022-11-20T09:16:23.693Z,29.86
2022-11-20T09:19:02.037Z,29.44
2022-11-20T09:21:40.209Z,29.12
2022-11-20T09:24:07.376Z,28.81
2022-11-20T09:26:34.002Z,28.67
2022-11-20T09:29:00.742Z,28.54
2022-11-20T09:31:27.682Z,28.50
2022-11-20T09:33:54.645Z,28.61
2022-11-20T09:36:21.565Z,28.69
2022-11-20T09:38:48.601Z,28.82
2022-11-20T09:41:52.623Z,28.97
2022-11-20T09:44:25.022Z,29.07
2022-11-20T09:47:55.117Z,29.03
2022-11-20T09:50:27.012Z,28.93
2022-11-20T09:53:00.679Z,28.87
2022-11-20T09:55:27.320Z,28.78
2022-11-20T09:57:53.977Z,28.73
2022-11-20T10:00:24.398Z,28.66
2022-11-20T10:03:02.451Z,28.61
2022-11-20T10:05:48.577Z,28.58
2022-11-20T10:08:40.420Z,28.56
2022-11-20T10:11:27.752Z,28.54
2022-11-20T10:14:15.584Z,28.52
2022-11-20T10:17:06.872Z,28.47
2022-11-20T10:19:52.990Z,28.49
2022-11-20T10:22:22.510Z,28.48
2022-11-20T10:24:56.634Z,28.48
2022-11-20T10:27:51.086Z,28.46
2022-11-20T10:30:18.871Z,28.47
2022-11-20T10:32:48.208Z,28.46
2022-11-20T10:35:14.758Z,28.46
2022-11-20T10:37:44.079Z,28.46
2022-11-20T10:40:34.777Z,28.45
2022-11-20T10:43:08.881Z,28.47
2022-11-20T10:45:45.590Z,28.46
2022-11-20T10:48:23.081Z,28.47
2022-11-20T10:51:20.678Z,28.48
2022-11-20T10:53:50.035Z,28.53
2022-11-20T10:56:35.774Z,28.54
2022-11-20T10:59:44.262Z,28.59
2022-11-20T11:02:16.939Z,28.58
2022-11-20T11:04:53.394Z,28.60
2022-11-20T11:07:32.017Z,28.61
2022-11-20T11:09:58.664Z,28.61
2022-11-20T11:12:26.735Z,28.59
2022-11-20T11:14:55.475Z,28.56
2022-11-20T11:17:29.338Z,28.53
2022-11-20T11:20:25.538Z,28.50
2022-11-20T11:22:53.983Z,28.49
2022-11-20T11:25:26.272Z,28.43
2022-11-20T11:27:53.194Z,28.41
2022-11-20T11:30:20.828Z,28.40
2022-11-20T11:32:47.646Z,28.40
2022-11-20T11:35:25.318Z,28.39
2022-11-20T11:37:52.327Z,28.40
2022-11-20T11:40:24.343Z,28.37
2022-11-20T11:42:57.806Z,28.37
2022-11-20T11:45:24.506Z,28.36
2022-11-20T11:47:57.949Z,28.35
2022-11-20T11:50:34.105Z,28.33
2022-11-20T11:53:16.105Z,28.32
2022-11-20T11:55:50.073Z,28.30
2022-11-20T11:58:35.595Z,28.31
2022-11-20T12:01:11.576Z,28.29
2022-11-20T12:03:39.617Z,28.29
2022-11-20T12:06:16.095Z,28.23
2022-11-20T12:08:54.925Z,28.22
2022-11-20T12:11:39.797Z,28.19
2022-11-20T12:14:11.130Z,28.18
2022-11-20T12:16:38.459Z,28.16
2022-11-20T12:19:09.274Z,28.16
2022-11-20T12:22:05.115Z,28.15
2022-11-20T12:24:53.810Z,28.13
2022-11-20T12:27:58.440Z,28.13
2022-11-20T12:30:25.795Z,28.11
2022-11-20T12:33:08.672Z,28.11
2022-11-20T12:35:59.889Z,28.08
2022-11-20T12:38:43.700Z,28.07
2022-11-20T12:42:15.290Z,28.02
2022-11-20T12:45:13.174Z,28.04
2022-11-20T12:48:11.028Z,28.01
2022-11-20T12:51:13.824Z,27.98
2022-11-20T12:53:51.616Z,27.98
2022-11-20T12:56:30.057Z,27.98
2022-11-20T12:59:22.694Z,27.97
2022-11-20T13:01:52.494Z,27.94
2022-11-20T13:04:37.803Z,27.92
2022-11-20T13:07:09.300Z,27.92
2022-11-20T13:09:38.440Z,27.89
2022-11-20T13:12:30.761Z,27.89
2022-11-20T13:15:15.665Z,27.86
2022-11-20T13:17:49.977Z,27.86
2022-11-20T13:20:18.260Z,27.83
2022-11-20T13:22:46.101Z,27.82
2022-11-20T13:25:29.167Z,27.78
2022-11-20T13:27:57.012Z,27.79
2022-11-20T13:30:27.766Z,27.78
2022-11-20T13:33:09.673Z,27.78
2022-11-20T13:35:37.925Z,27.75
2022-11-20T13:38:11.317Z,27.75
2022-11-20T13:40:58.065Z,27.75
2022-11-20T13:43:27.555Z,27.76
2022-11-20T13:46:08.006Z,27.73
2022-11-20T13:48:42.686Z,27.73
2022-11-20T13:51:37.733Z,27.72
2022-11-20T13:54:26.605Z,27.69
2022-11-20T13:57:00.639Z,27.68
2022-11-20T13:59:41.945Z,27.67
2022-11-20T14:02:16.271Z,27.67
2022-11-20T14:04:45.004Z,27.64
2022-11-20T14:07:11.614Z,27.62
2022-11-20T14:09:38.272Z,27.60
2022-11-20T14:12:05.418Z,27.62
2022-11-20T14:14:33.328Z,27.62
2022-11-20T14:17:10.336Z,27.62
2022-11-20T14:19:38.277Z,27.58
2022-11-20T14:22:21.927Z,27.59
2022-11-20T14:24:49.552Z,27.59
2022-11-20T14:27:20.540Z,27.60
2022-11-20T14:29:47.902Z,27.56
2022-11-20T14:32:18.898Z,27.55
2022-11-20T14:34:46.885Z,27.33
2022-11-20T14:37:16.961Z,27.14
2022-11-20T14:39:49.390Z,26.95
2022-11-20T14:42:20.563Z,26.81
2022-11-20T14:44:47.198Z,26.73
2022-11-20T14:47:14.457Z,26.64
2022-11-20T14:49:41.089Z,26.55
2022-11-20T14:52:27.016Z,26.49
2022-11-20T14:54:54.123Z,26.41
2022-11-20T14:57:28.310Z,26.39
2022-11-20T15:00:06.287Z,26.42
2022-11-20T15:02:33.012Z,26.33
2022-11-20T15:05:04.343Z,26.25
2022-11-20T15:07:33.291Z,26.22
2022-11-20T15:10:23.659Z,26.12
2022-11-20T15:12:52.655Z,26.11
2022-11-20T15:15:26.569Z,26.07
2022-11-20T15:17:53.176Z,26.02
2022-11-20T15:20:19.760Z,25.93
2022-11-20T15:22:46.557Z,25.92
2022-11-20T15:25:17.708Z,25.91
2022-11-20T15:27:44.669Z,25.92
2022-11-20T15:30:16.378Z,25.86
2022-11-20T15:32:43.200Z,25.81
2022-11-20T15:35:10.736Z,25.85
2022-11-20T15:37:40.547Z,25.75
2022-11-20T15:40:07.829Z,25.74
2022-11-20T15:42:34.501Z,25.78
2022-11-20T15:45:01.304Z,25.79
2022-11-20T15:47:38.717Z,25.75
2022-11-20T15:50:06.896Z,25.68
2022-11-20T15:52:41.908Z,25.64
2022-11-20T15:55:11.069Z,25.60
2022-11-20T15:57:37.641Z,25.65
2022-11-20T16:00:06.130Z,25.55
2022-11-20T16:02:32.673Z,25.68
2022-11-20T16:04:59.243Z,25.65
2022-11-20T16:07:25.958Z,25.70
2022-11-20T16:09:52.671Z,25.62
2022-11-20T16:12:39.242Z,25.53
2022-11-20T16:15:24.431Z,25.56
2022-11-20T16:17:51.129Z,25.65
2022-11-20T16:20:17.733Z,25.47
2022-11-20T16:22:44.368Z,25.57
2022-11-20T16:25:10.935Z,25.50
2022-11-20T16:27:37.500Z,25.60
2022-11-20T16:30:04.283Z,25.58
2022-11-20T16:32:33.759Z,25.66
2022-11-20T16:35:00.482Z,25.52
2022-11-20T16:37:27.462Z,25.60
2022-11-20T16:39:54.083Z,25.47
2022-11-20T16:42:20.828Z,25.54
2022-11-20T16:44:47.957Z,25.51
2022-11-20T16:47:14.656Z,25.46
2022-11-20T16:49:41.257Z,25.39
2022-11-20T16:52:08.000Z,25.43
2022-11-20T16:54:34.719Z,25.46
2022-11-20T16:57:01.404Z,25.46
2022-11-20T16:59:27.956Z,25.44
2022-11-20T17:01:54.615Z,25.44
2022-11-20T17:04:24.852Z,25.48
2022-11-20T17:06:51.715Z,25.48
2022-11-20T17:09:18.269Z,25.54
2022-11-20T17:11:44.847Z,25.53
2022-11-20T17:14:11.723Z,25.52
2022-11-20T17:16:38.399Z,25.46
2022-11-20T17:19:05.445Z,25.41
2022-11-20T17:21:32.976Z,25.50
2022-11-20T17:24:07.220Z,25.53
2022-11-20T17:26:34.139Z,25.50
2022-11-20T17:29:02.585Z,25.49
2022-11-20T17:31:29.854Z,25.50
2022-11-20T17:33:56.540Z,25.36
2022-11-20T17:36:23.122Z,25.33
2022-11-20T17:38:49.786Z,25.25
2022-11-20T17:41:22.221Z,25.35
2022-11-20T17:43:49.316Z,25.36
2022-11-20T17:46:19.888Z,25.43
2022-11-20T17:48:47.087Z,25.44
2022-11-20T17:51:22.378Z,25.42
2022-11-20T17:53:53.679Z,25.41
2022-11-20T17:56:41.622Z,25.38
2022-11-20T17:59:09.970Z,25.39
2022-11-20T18:01:36.682Z,25.21
2022-11-20T18:04:03.556Z,25.29
2022-11-20T18:06:30.486Z,25.27
2022-11-20T18:09:00.553Z,25.36
2022-11-20T18:11:33.709Z,25.32
2022-11-20T18:14:19.465Z,25.18
2022-11-20T18:16:49.673Z,25.35
2022-11-20T18:19:19.097Z,25.35
2022-11-20T18:21:45.730Z,25.41
2022-11-20T18:24:12.330Z,25.27
2022-11-20T18:26:44.093Z,25.41
2022-11-20T18:29:11.864Z,25.33
2022-11-20T18:31:38.464Z,25.33
2022-11-20T18:34:05.427Z,25.16
2022-11-20T18:36:32.924Z,25.33
2022-11-20T18:39:00.120Z,25.20
2022-11-20T18:41:46.890Z,25.42
2022-11-20T18:44:37.021Z,25.38
2022-11-20T18:47:08.350Z,25.42
2022-11-20T18:49:40.482Z,25.48
2022-11-20T18:52:07.061Z,25.43
2022-11-20T18:54:36.834Z,25.47
2022-11-20T18:57:04.244Z,25.50
2022-11-20T18:59:31.277Z,25.48
2022-11-20T19:02:00.549Z,25.40
2022-11-20T19:04:27.730Z,25.31
2022-11-20T19:06:56.313Z,25.36
2022-11-20T19:09:23.590Z,25.34
2022-11-20T19:11:50.629Z,25.36
2022-11-20T19:14:17.259Z,25.36
2022-11-20T19:16:43.808Z,25.43
2022-11-20T19:19:10.788Z,25.41
2022-11-20T19:21:37.362Z,25.48
2022-11-20T19:24:04.365Z,25.39
2022-11-20T19:26:31.021Z,25.44
2022-11-20T19:28:58.769Z,25.30
2022-11-20T19:31:28.815Z,25.37
2022-11-20T19:33:56.519Z,25.33
2022-11-20T19:36:28.730Z,25.33
2022-11-20T19:38:55.410Z,25.21
2022-11-20T19:41:28.980Z,25.29
2022-11-20T19:44:00.174Z,25.32
2022-11-20T19:46:27.302Z,25.40
2022-11-20T19:48:54.221Z,25.24
2022-11-20T19:51:31.552Z,25.31
2022-11-20T19:53:58.621Z,25.35
2022-11-20T19:56:26.187Z,25.33
2022-11-20T19:58:53.792Z,25.37
2022-11-20T20:01:21.860Z,25.34
2022-11-20T20:03:48.561Z,25.35
2022-11-20T20:06:16.679Z,25.46
2022-11-20T20:08:43.287Z,25.32
2022-11-20T20:11:18.677Z,25.45
2022-11-20T20:13:45.648Z,25.45
2022-11-20T20:16:16.810Z,25.40
2022-11-20T20:18:43.406Z,25.48
2022-11-20T20:21:11.331Z,25.53
2022-11-20T20:23:38.090Z,25.53
2022-11-20T20:26:05.656Z,25.51
2022-11-20T20:28:32.401Z,25.57
2022-11-20T20:31:06.342Z,25.59
2022-11-20T20:33:32.917Z,25.71
2022-11-20T20:35:59.483Z,25.60
2022-11-20T20:38:26.092Z,25.57
2022-11-20T20:40:52.965Z,25.70
2022-11-20T20:43:19.562Z,25.55
2022-11-20T20:45:47.671Z,25.65
2022-11-20T20:48:15.488Z,25.63
2022-11-20T20:50:42.143Z,25.67
2022-11-20T20:53:09.409Z,25.56
2022-11-20T20:55:36.053Z,25.61
2022-11-20T20:58:02.644Z,25.57
2022-11-20T21:00:29.265Z,25.61
2022-11-20T21:02:55.829Z,25.68
2022-11-20T21:05:22.390Z,25.63
2022-11-20T21:08:07.598Z,25.64
2022-11-20T21:10:34.679Z,25.63
2022-11-20T21:13:01.275Z,25.78
2022-11-20T21:15:27.957Z,25.78
2022-11-20T21:17:54.567Z,25.85
2022-11-20T21:20:39.965Z,25.73
2022-11-20T21:23:10.257Z,25.66
2022-11-20T21:25:38.282Z,25.71
2022-11-20T21:28:04.843Z,25.73
2022-11-20T21:30:31.418Z,25.80
2022-11-20T21:32:57.973Z,25.75
2022-11-20T21:35:24.568Z,25.72
2022-11-20T21:37:51.200Z,25.79
2022-11-20T21:40:18.012Z,25.73
2022-11-20T21:42:44.639Z,25.79
2022-11-20T21:45:11.289Z,25.86
2022-11-20T21:47:37.875Z,25.92
2022-11-20T21:50:04.823Z,25.81
2022-11-20T21:52:31.454Z,25.87
2022-11-20T21:54:58.050Z,25.74
2022-11-20T21:57:24.627Z,25.80
2022-11-20T21:59:51.300Z,25.84
2022-11-20T22:02:17.909Z,25.80
2022-11-20T22:04:44.541Z,25.97
2022-11-20T22:07:11.139Z,25.81
2022-11-20T22:09:37.802Z,25.84
2022-11-20T22:12:04.720Z,25.88
2022-11-20T22:14:31.338Z,25.85
2022-11-20T22:16:57.886Z,25.90
2022-11-20T22:19:24.503Z,25.88
2022-11-20T22:21:51.142Z,25.93
2022-11-20T22:24:18.677Z,25.77
2022-11-20T22:26:45.296Z,25.94
2022-11-20T22:29:16.252Z,26.08
2022-11-20T22:31:42.899Z,25.83
2022-11-20T22:34:11.295Z,25.92
2022-11-20T22:36:38.286Z,25.83
2022-11-20T22:39:05.008Z,25.90
2022-11-20T22:41:31.967Z,25.88
2022-11-20T22:44:00.291Z,25.85
2022-11-20T22:46:27.793Z,25.95
2022-11-20T22:49:01.712Z,25.93
2022-11-20T22:51:32.958Z,25.85
2022-11-20T22:53:59.902Z,25.85
2022-11-20T22:56:26.755Z,25.96
2022-11-20T22:58:54.018Z,25.90
2022-11-20T23:01:24.776Z,25.94
2022-11-20T23:03:55.791Z,25.86
2022-11-20T23:06:22.465Z,25.94
2022-11-20T23:08:49.099Z,25.94
2022-11-20T23:11:17.471Z,25.87
2022-11-20T23:13:44.386Z,25.93
2022-11-20T23:16:18.095Z,25.99
2022-11-20T23:18:46.612Z,26.02
2022-11-20T23:21:17.832Z,25.85
2022-11-20T23:23:49.100Z,25.99
2022-11-20T23:26:16.229Z,26.09
2022-11-20T23:28:42.893Z,25.95
2022-11-20T23:31:10.177Z,25.91
2022-11-20T23:33:40.294Z,25.92
2022-11-20T23:36:07.285Z,25.82
2022-11-20T23:38:34.017Z,25.78
2022-11-20T23:41:00.628Z,25.79
2022-11-20T23:43:27.332Z,25.77
2022-11-20T23:45:57.929Z,25.95
2022-11-20T23:48:26.015Z,25.71
2022-11-20T23:50:52.874Z,26.01
2022-11-20T23:53:19.874Z,25.88
2022-11-20T23:55:50.248Z,25.94
2022-11-20T23:58:16.817Z,25.87
